METAR Data
IDs: Format: Raw Decoded Include TAF

Data at: 0126 UTC 24 Sep 2018

KASE 240053Z VRB04KT 10SM FEW110 20/M04 A3012 RMK AO2 SLP098 T02001044
KASE 232353Z 20012KT 10SM SCT120 22/M04 A3013 RMK AO2 SLP090 T02171044 10244 20200 55009
KASE 232253Z 19003KT 10SM BKN110 23/M07 A3013 RMK AO2 SLP092 T02281067
KASE 232153Z 25007G22KT 10SM SCT120 24/M06 A3015 RMK AO2 SLP097 T02391061
KASE 232053Z 25010G17KT 10SM CLR 23/M06 A3017 RMK AO2 PK WND 20026/2006 SLP102 T02281061 56022
KASE 231953Z 23009G17KT 10SM SCT100 23/M05 A3020 RMK AO2 PK WND 23026/1901 SLP106 T02331050
KASE 231853Z 10SM BKN100 22/M04 A3022 RMK AO2 SLP118 T02221039
KASE 231753Z 36004KT 10SM BKN100 21/M02 A3025 RMK AO2 SLP133 T02061022 10206 20044 58009
KASE 231653Z 01008KT 10SM BKN100 18/M01 A3027 RMK AO2 SLP145 T01831006
KASE 231553Z 00000KT 10SM OVC100 16/M01 A3028 RMK AO2 SLP152 T01611011
KASE 231453Z 00000KT 10SM OVC100 14/M02 A3028 RMK AO2 SLP158 T01391017 51003
KASE 231353Z 19006KT 10SM CLR 09/M02 A3028 RMK AO2 SLP154 T00941022
KASE 231253Z 24004KT 10SM CLR 05/M03 A3028 RMK AO2 SLP160 T00501033
KASE 231153Z AUTO 21006KT 10SM CLR 08/M03 A3027 RMK AO2 SLP137 T00781033 10089 20044 58004
KASE 231053Z AUTO 20006KT 10SM CLR 06/M04 A3028 RMK AO2 SLP142 T00611044
KASE 230953Z AUTO 19004KT 10SM CLR 04/M04 A3028 RMK AO2 SLP148 T00441044
KASE 230853Z AUTO 19005KT 10SM CLR 07/M05 A3028 RMK AO2 SLP138 T00721050 57006
KASE 230753Z AUTO 21005KT 10SM CLR 08/M06 A3029 RMK AO2 SLP141 T00831056
KASE 230653Z AUTO 20006KT 10SM CLR 08/M06 A3030 RMK AO2 SLP148 T00831056 402500033
KASE 230553Z AUTO 21008KT 10SM CLR 08/M06 A3031 RMK AO2 SLP150 T00831061 10228 20072 50001
KASE 230453Z AUTO 20007KT 10SM CLR 09/M07 A3031 RMK AO2 SLP154 T00941067
KASE 230353Z AUTO 20006KT 10SM CLR 11/M08 A3031 RMK AO2 SLP162 T01061078
KASE 230253Z AUTO 21008KT 10SM CLR 10/M07 A3030 RMK AO2 SLP173 T01001072 53013
KASE 230153Z 18007KT 10SM CLR 16/M07 A3029 RMK AO2 SLP165 T01611072
KASE 230053Z 25003KT 10SM CLR 18/M07 A3027 RMK AO2 SLP156 T01781072
KASE 230014Z 33006G18KT 10SM CLR 22/M09 A3026 RMK AO2 T02171094
KASE 222353Z VRB05KT 10SM CLR 23/M10 A3026 RMK AO2 SLP143 T02281100 10250 20222 55005
KASE 222253Z 32010KT 10SM CLR 24/M09 A3025 RMK AO2 SLP138 T02391089
KASE 222153Z 33008G15KT 10SM CLR 24/M12 A3027 RMK AO2 SLP137 T02441122
KASE 222053Z 35010G16KT 10SM CLR 24/M10 A3028 RMK AO2 SLP141 T02441100 58025
KASE 221953Z 04008G16KT 10SM CLR 24/M11 A3031 RMK AO2 SLP154 T02391106
KASE 221853Z 34010G15KT 10SM CLR 23/M11 A3035 RMK AO2 SLP167 T02281106
KASE 221753Z 36009G15KT 10SM CLR 22/M09 A3037 RMK AO2 SLP174 T02221089 10228 20033 58013
KASE 221653Z 33004KT 10SM CLR 20/M06 A3039 RMK AO2 SLP183 T02001056
KASE 221553Z 19003KT 10SM CLR 16/M06 A3040 RMK AO2 SLP198 T01611061
KASE 221453Z 14004KT 10SM CLR 12/M06 A3041 RMK AO2 SLP208 T01171056 50002
KASE 221353Z 16003KT 10SM CLR 06/M06 A3041 RMK AO2 SLP218 T00561061